AFL1415 UNNT-UNKL
Flight info
| Callsign | AFL1415 |
|---|---|
| Flight time | N/A |
| Altitude | 35000 |
| Route | OGATI1J OGATI A308 RISPA A366 KESED A309 ROTLI A300 RANET RANET2R |
| Aircraft | A320/M-SDE3FGHIRWY/LB1 |
Departure
| Time | 2026-05-01 15:06 |
|---|---|
| Airport | Novosibirsk Tolmachevo Airport (UNNT) |
Arrival
| Time | N/A |
|---|---|
| Airport | Krasnoyarsk International Airport (UNKL) |
| Time | Latitude | Longitude | Altitude | Speed | Heading |
|---|---|---|---|---|---|
| 2026-05-01 13:56 | 55.01011 | 82.66590 | 373 ft | 0 kts | 171° |
| 2026-05-01 14:51 | 55.01013 | 82.66589 | 373 ft | 2 kts | 171° |
| 2026-05-01 14:51 | 55.01059 | 82.66553 | 373 ft | 4 kts | 133° |
| 2026-05-01 14:52 | 55.01090 | 82.66481 | 373 ft | 4 kts | 159° |
| 2026-05-01 14:52 | 55.01094 | 82.66478 | 373 ft | 0 kts | 171° |
| 2026-05-01 14:57 | 55.01092 | 82.66479 | 373 ft | 2 kts | 171° |
| 2026-05-01 14:57 | 55.01073 | 82.66483 | 373 ft | 8 kts | 173° |
| 2026-05-01 14:58 | 55.01027 | 82.66400 | 373 ft | 13 kts | 256° |
| 2026-05-01 14:58 | 55.00974 | 82.66254 | 373 ft | 16 kts | 237° |
| 2026-05-01 14:58 | 55.00952 | 82.66057 | 373 ft | 18 kts | 259° |
| 2026-05-01 14:58 | 55.00935 | 82.65820 | 373 ft | 21 kts | 263° |
| 2026-05-01 14:59 | 55.00911 | 82.65582 | 373 ft | 20 kts | 261° |
| 2026-05-01 14:59 | 55.00889 | 82.65352 | 373 ft | 18 kts | 259° |
| 2026-05-01 14:59 | 55.00881 | 82.65159 | 373 ft | 14 kts | 265° |
| 2026-05-01 14:59 | 55.00875 | 82.64969 | 373 ft | 17 kts | 282° |
| 2026-05-01 15:00 | 55.00925 | 82.64586 | 373 ft | 22 kts | 282° |
| 2026-05-01 15:00 | 55.00961 | 82.64306 | 373 ft | 25 kts | 283° |
| 2026-05-01 15:00 | 55.00986 | 82.64120 | 374 ft | 3 kts | 283° |
| 2026-05-01 15:01 | 55.00986 | 82.64116 | 374 ft | 0 kts | 283° |
| 2026-05-01 15:01 | 55.00986 | 82.64114 | 374 ft | 0 kts | 283° |
| 2026-05-01 15:01 | 55.00986 | 82.64113 | 374 ft | 0 kts | 283° |
| 2026-05-01 15:02 | 55.00987 | 82.64108 | 374 ft | 0 kts | 283° |
| 2026-05-01 15:02 | 55.00987 | 82.64107 | 374 ft | 0 kts | 283° |
| 2026-05-01 15:02 | 55.01005 | 82.64028 | 374 ft | 6 kts | 316° |
| 2026-05-01 15:02 | 55.01012 | 82.64018 | 374 ft | 0 kts | 321° |
| 2026-05-01 15:04 | 55.01013 | 82.64016 | 374 ft | 3 kts | 322° |
| 2026-05-01 15:04 | 55.01077 | 82.63992 | 375 ft | 15 kts | 351° |
| 2026-05-01 15:04 | 55.01152 | 82.64032 | 375 ft | 9 kts | 80° |
| 2026-05-01 15:05 | 55.01153 | 82.64041 | 375 ft | 0 kts | 80° |
| 2026-05-01 15:05 | 55.01153 | 82.64042 | 375 ft | 0 kts | 80° |
| 2026-05-01 15:05 | 55.01153 | 82.64043 | 375 ft | 0 kts | 80° |
| 2026-05-01 15:05 | 55.01157 | 82.64083 | 375 ft | 21 kts | 81° |
| 2026-05-01 15:06 | 55.01219 | 82.64832 | 373 ft | 101 kts | 81° |
| 2026-05-01 15:06 | 55.01361 | 82.66410 | 378 ft | 160 kts | 82° |
| 2026-05-01 15:06 | 55.01534 | 82.68350 | 999 ft | 161 kts | 82° |
| 2026-05-01 15:06 | 55.01731 | 82.70259 | 1736 ft | 159 kts | 85° |
| 2026-05-01 15:07 | 55.01939 | 82.72271 | 2087 ft | 180 kts | 88° |
| 2026-05-01 15:07 | 55.02105 | 82.74529 | 2422 ft | 201 kts | 90° |
| 2026-05-01 15:07 | 55.02225 | 82.77128 | 2749 ft | 227 kts | 91° |
| 2026-05-01 15:07 | 55.02407 | 82.79960 | 3414 ft | 242 kts | 86° |
| 2026-05-01 15:08 | 55.02690 | 82.82882 | 4159 ft | 247 kts | 84° |
| 2026-05-01 15:08 | 55.02783 | 82.85859 | 5029 ft | 244 kts | 104° |
| 2026-05-01 15:08 | 55.02128 | 82.88598 | 5627 ft | 252 kts | 132° |
| 2026-05-01 15:08 | 55.00883 | 82.90818 | 6355 ft | 260 kts | 138° |
| 2026-05-01 15:09 | 54.99566 | 82.93043 | 7139 ft | 267 kts | 138° |
| 2026-05-01 15:09 | 54.98242 | 82.95354 | 7942 ft | 274 kts | 132° |
| 2026-05-01 15:09 | 54.97379 | 82.98281 | 8677 ft | 288 kts | 106° |
| 2026-05-01 15:09 | 54.97220 | 83.01812 | 9482 ft | 297 kts | 94° |
| 2026-05-01 15:10 | 54.97197 | 83.05438 | 10209 ft | 306 kts | 93° |
| 2026-05-01 15:10 | 54.97156 | 83.13302 | 10927 ft | 344 kts | 93° |
| 2026-05-01 15:10 | 54.97132 | 83.17507 | 11635 ft | 351 kts | 93° |
| 2026-05-01 15:11 | 54.97103 | 83.21793 | 12374 ft | 356 kts | 93° |
| 2026-05-01 15:11 | 54.96567 | 83.30448 | 13835 ft | 365 kts | 99° |
| 2026-05-01 15:11 | 54.96245 | 83.34800 | 14478 ft | 369 kts | 99° |
| 2026-05-01 15:12 | 54.95911 | 83.39317 | 15144 ft | 374 kts | 99° |
| 2026-05-01 15:12 | 54.95240 | 83.48329 | 16423 ft | 382 kts | 99° |
| 2026-05-01 15:12 | 54.94893 | 83.52947 | 17053 ft | 387 kts | 99° |
| 2026-05-01 15:13 | 54.93821 | 83.67095 | 18796 ft | 399 kts | 99° |
| 2026-05-01 15:14 | 54.93081 | 83.76637 | 18998 ft | 398 kts | 99° |
| 2026-05-01 15:14 | 54.92707 | 83.81427 | 19006 ft | 399 kts | 99° |
| 2026-05-01 15:14 | 54.91970 | 83.90873 | 20121 ft | 404 kts | 99° |
| 2026-05-01 15:15 | 54.91207 | 84.00605 | 21326 ft | 408 kts | 100° |
| 2026-05-01 15:15 | 54.90425 | 84.10440 | 22515 ft | 413 kts | 100° |
| 2026-05-01 15:16 | 54.89629 | 84.20329 | 23663 ft | 418 kts | 100° |
| 2026-05-01 15:16 | 54.88802 | 84.30419 | 24579 ft | 424 kts | 100° |
| 2026-05-01 15:17 | 54.87953 | 84.40621 | 25439 ft | 430 kts | 100° |
| 2026-05-01 15:18 | 54.86660 | 84.56162 | 26693 ft | 437 kts | 100° |
| 2026-05-01 15:18 | 54.86218 | 84.61414 | 27031 ft | 442 kts | 99° |
| 2026-05-01 15:19 | 54.85062 | 84.77455 | 28142 ft | 451 kts | 97° |
| 2026-05-01 15:19 | 54.84427 | 84.88374 | 28886 ft | 457 kts | 97° |
| 2026-05-01 15:19 | 54.84108 | 84.93879 | 29247 ft | 459 kts | 97° |
| 2026-05-01 15:20 | 54.83466 | 85.04958 | 29929 ft | 465 kts | 97° |
| 2026-05-01 15:20 | 54.83150 | 85.10424 | 30225 ft | 467 kts | 97° |
| 2026-05-01 15:20 | 54.82824 | 85.15947 | 30491 ft | 469 kts | 97° |
| 2026-05-01 15:21 | 54.82541 | 85.20437 | 30705 ft | 471 kts | 97° |
| 2026-05-01 15:22 | 54.82252 | 85.24983 | 30927 ft | 473 kts | 97° |
| 2026-05-01 15:22 | 54.81905 | 85.30413 | 31192 ft | 474 kts | 97° |
| 2026-05-01 15:22 | 54.81542 | 85.36083 | 31467 ft | 475 kts | 97° |
| 2026-05-01 15:23 | 54.81182 | 85.41692 | 31852 ft | 474 kts | 97° |
| 2026-05-01 15:23 | 54.80818 | 85.47360 | 32243 ft | 472 kts | 96° |
| 2026-05-01 15:23 | 54.80454 | 85.53021 | 32629 ft | 470 kts | 96° |
| 2026-05-01 15:23 | 54.80092 | 85.58633 | 33008 ft | 469 kts | 96° |
| 2026-05-01 15:24 | 54.79728 | 85.64256 | 33399 ft | 468 kts | 96° |
| 2026-05-01 15:24 | 54.79361 | 85.69851 | 33783 ft | 467 kts | 96° |
| 2026-05-01 15:24 | 54.78972 | 85.75438 | 34126 ft | 466 kts | 96° |
| 2026-05-01 15:24 | 54.78579 | 85.80994 | 34445 ft | 465 kts | 96° |
| 2026-05-01 15:25 | 54.78187 | 85.86547 | 34785 ft | 464 kts | 96° |
| 2026-05-01 15:25 | 54.77796 | 85.92099 | 35000 ft | 463 kts | 96° |
| 2026-05-01 15:25 | 54.77022 | 86.03148 | 35046 ft | 461 kts | 96° |
| 2026-05-01 15:26 | 54.76262 | 86.14108 | 35046 ft | 461 kts | 96° |
| 2026-05-01 15:26 | 54.75499 | 86.25146 | 35047 ft | 461 kts | 96° |
| 2026-05-01 15:27 | 54.74687 | 86.36174 | 35048 ft | 462 kts | 96° |
| 2026-05-01 15:28 | 54.73485 | 86.52607 | 35045 ft | 462 kts | 96° |
| 2026-05-01 15:28 | 54.72686 | 86.63663 | 35049 ft | 462 kts | 96° |
| 2026-05-01 15:29 | 54.71495 | 86.80237 | 35056 ft | 463 kts | 96° |
| 2026-05-01 15:30 | 54.72228 | 87.01547 | 35089 ft | 444 kts | 57° |
| 2026-05-01 15:31 | 54.80677 | 87.16411 | 35068 ft | 433 kts | 39° |
| 2026-05-01 15:31 | 54.85080 | 87.23374 | 35063 ft | 433 kts | 39° |
| 2026-05-01 15:32 | 54.93876 | 87.37388 | 35075 ft | 433 kts | 38° |
| 2026-05-01 15:34 | 55.07164 | 87.58694 | 35072 ft | 433 kts | 38° |